Utopia, New York
Current Conditions -  °F | °C
As of 7:51 PM on Wednesday 17 Dec 2014 (Local Time) from KLGA Reporting Station
Light Rain Light Rain  
Wind Chill: 38°   Ceiling: 3800
Heat Index: 45°   Visibility: 10mi
Dew Point: 36°   Wind: 17mph
Humidity: 71%   Direction: 310°NW
Pressure: 29.88"   Gusts: NA
Location:  40.7279°N, 73.7922°W
Report Text: KLGA 180051Z 31015KT 10SM -RA BKN038 OVC050 07/02 A2988 RMK AO2 RAB27 SLP119 P0000 T00720022
Loading
Personal Weather Stations






























Interactive Weather Map New forecast layout! Learn more

10-Day Weather Forecast

Advertisements
Track Severe Weather on mobile